sensor_id;sensor_type;location;lat;lon;timestamp;P1;durP1;ratioP1;P2;durP2;ratioP2
46054;SDS011;31788;6.954;-71.872;2022-07-06T00:00:47;2.97;;;1.38;;
46054;SDS011;31788;6.954;-71.872;2022-07-06T00:03:14;2.88;;;1.10;;
46054;SDS011;31788;6.954;-71.872;2022-07-06T00:05:40;4.27;;;1.20;;
46054;SDS011;31788;6.954;-71.872;2022-07-06T00:08:07;1.20;;;0.70;;
46054;SDS011;31788;6.954;-71.872;2022-07-06T00:10:33;1.95;;;0.90;;
46054;SDS011;31788;6.954;-71.872;2022-07-06T00:13:00;1.17;;;0.70;;
46054;SDS011;31788;6.954;-71.872;2022-07-06T00:15:27;2.80;;;1.00;;
46054;SDS011;31788;6.954;-71.872;2022-07-06T00:17:53;2.50;;;1.00;;
46054;SDS011;31788;6.954;-71.872;2022-07-06T00:20:20;3.33;;;1.00;;
46054;SDS011;31788;6.954;-71.872;2022-07-06T00:22:46;1.58;;;1.02;;
46054;SDS011;31788;6.954;-71.872;2022-07-06T00:25:13;3.22;;;0.98;;
46054;SDS011;31788;6.954;-71.872;2022-07-06T00:27:39;3.08;;;0.82;;
46054;SDS011;31788;6.954;-71.872;2022-07-06T00:30:06;1.95;;;0.70;;
46054;SDS011;31788;6.954;-71.872;2022-07-06T00:32:33;2.13;;;0.83;;
46054;SDS011;31788;6.954;-71.872;2022-07-06T00:34:59;2.13;;;0.88;;
46054;SDS011;31788;6.954;-71.872;2022-07-06T00:37:26;2.45;;;0.80;;
46054;SDS011;31788;6.954;-71.872;2022-07-06T00:39:52;1.83;;;0.82;;
46054;SDS011;31788;6.954;-71.872;2022-07-06T00:42:19;2.45;;;0.90;;
46054;SDS011;31788;6.954;-71.872;2022-07-06T00:44:45;1.57;;;0.70;;
46054;SDS011;31788;6.954;-71.872;2022-07-06T00:47:12;1.58;;;0.82;;
46054;SDS011;31788;6.954;-71.872;2022-07-06T00:49:38;1.73;;;0.70;;
46054;SDS011;31788;6.954;-71.872;2022-07-06T00:52:23;1.92;;;1.00;;
46054;SDS011;31788;6.954;-71.872;2022-07-06T00:54:51;3.20;;;1.00;;
46054;SDS011;31788;6.954;-71.872;2022-07-06T00:57:19;3.78;;;1.55;;
46054;SDS011;31788;6.954;-71.872;2022-07-06T00:59:46;2.38;;;1.17;;
46054;SDS011;31788;6.954;-71.872;2022-07-06T01:02:12;2.25;;;1.15;;
46054;SDS011;31788;6.954;-71.872;2022-07-06T01:04:39;6.20;;;3.87;;
46054;SDS011;31788;6.954;-71.872;2022-07-06T01:07:06;3.28;;;2.25;;
46054;SDS011;31788;6.954;-71.872;2022-07-06T01:09:32;3.07;;;2.20;;
46054;SDS011;31788;6.954;-71.872;2022-07-06T01:11:59;3.33;;;2.00;;
46054;SDS011;31788;6.954;-71.872;2022-07-06T01:14:25;3.42;;;1.60;;
46054;SDS011;31788;6.954;-71.872;2022-07-06T01:16:53;2.20;;;1.20;;
46054;SDS011;31788;6.954;-71.872;2022-07-06T01:19:23;16.27;;;2.40;;
46054;SDS011;31788;6.954;-71.872;2022-07-06T01:22:00;14.25;;;2.38;;
46054;SDS011;31788;6.954;-71.872;2022-07-06T01:24:31;19.23;;;2.90;;
46054;SDS011;31788;6.954;-71.872;2022-07-06T01:27:04;7.35;;;1.85;;
46054;SDS011;31788;6.954;-71.872;2022-07-06T01:29:31;7.03;;;1.40;;
46054;SDS011;31788;6.954;-71.872;2022-07-06T01:31:59;1.83;;;0.90;;
46054;SDS011;31788;6.954;-71.872;2022-07-06T01:34:26;2.33;;;0.70;;
46054;SDS011;31788;6.954;-71.872;2022-07-06T01:36:53;4.80;;;1.10;;
46054;SDS011;31788;6.954;-71.872;2022-07-06T01:39:21;3.20;;;0.80;;
46054;SDS011;31788;6.954;-71.872;2022-07-06T01:41:52;4.13;;;0.80;;
46054;SDS011;31788;6.954;-71.872;2022-07-06T01:44:25;4.15;;;0.90;;
46054;SDS011;31788;6.954;-71.872;2022-07-06T01:46:51;2.78;;;0.70;;
46054;SDS011;31788;6.954;-71.872;2022-07-06T01:49:21;3.33;;;0.80;;
46054;SDS011;31788;6.954;-71.872;2022-07-06T01:51:53;5.03;;;1.00;;
46054;SDS011;31788;6.954;-71.872;2022-07-06T01:54:26;5.97;;;0.90;;
46054;SDS011;31788;6.954;-71.872;2022-07-06T01:56:53;3.00;;;0.70;;
46054;SDS011;31788;6.954;-71.872;2022-07-06T01:59:21;3.85;;;1.08;;
46054;SDS011;31788;6.954;-71.872;2022-07-06T02:01:48;5.82;;;1.60;;
46054;SDS011;31788;6.954;-71.872;2022-07-06T02:04:18;3.28;;;1.10;;
46054;SDS011;31788;6.954;-71.872;2022-07-06T02:07:11;3.17;;;0.98;;
46054;SDS011;31788;6.954;-71.872;2022-07-06T02:09:38;4.60;;;0.90;;
46054;SDS011;31788;6.954;-71.872;2022-07-06T02:12:05;5.32;;;1.10;;
46054;SDS011;31788;6.954;-71.872;2022-07-06T02:14:31;5.07;;;1.10;;
46054;SDS011;31788;6.954;-71.872;2022-07-06T02:17:00;4.80;;;1.10;;
46054;SDS011;31788;6.954;-71.872;2022-07-06T02:19:29;3.92;;;1.00;;
46054;SDS011;31788;6.954;-71.872;2022-07-06T02:21:57;2.70;;;1.10;;
46054;SDS011;31788;6.954;-71.872;2022-07-06T02:24:24;5.95;;;1.38;;
46054;SDS011;31788;6.954;-71.872;2022-07-06T02:26:51;3.72;;;1.50;;
46054;SDS011;31788;6.954;-71.872;2022-07-06T02:29:18;4.47;;;1.05;;
46054;SDS011;31788;6.954;-71.872;2022-07-06T02:31:45;3.47;;;1.10;;
46054;SDS011;31788;6.954;-71.872;2022-07-06T02:34:12;4.40;;;1.30;;
46054;SDS011;31788;6.954;-71.872;2022-07-06T02:36:40;2.92;;;1.20;;
46054;SDS011;31788;6.954;-71.872;2022-07-06T02:39:07;4.65;;;1.30;;
46054;SDS011;31788;6.954;-71.872;2022-07-06T02:41:35;4.25;;;1.40;;
46054;SDS011;31788;6.954;-71.872;2022-07-06T02:44:05;4.32;;;1.15;;
46054;SDS011;31788;6.954;-71.872;2022-07-06T02:46:35;4.93;;;1.13;;
46054;SDS011;31788;6.954;-71.872;2022-07-06T02:49:02;3.22;;;1.10;;
46054;SDS011;31788;6.954;-71.872;2022-07-06T02:51:31;1.80;;;1.00;;
46054;SDS011;31788;6.954;-71.872;2022-07-06T02:53:58;2.47;;;1.10;;
46054;SDS011;31788;6.954;-71.872;2022-07-06T02:56:24;2.25;;;0.82;;
46054;SDS011;31788;6.954;-71.872;2022-07-06T02:58:55;2.90;;;0.80;;
46054;SDS011;31788;6.954;-71.872;2022-07-06T03:01:25;2.63;;;0.90;;
46054;SDS011;31788;6.954;-71.872;2022-07-06T03:03:51;1.42;;;0.70;;
46054;SDS011;31788;6.954;-71.872;2022-07-06T03:06:18;5.10;;;0.90;;
46054;SDS011;31788;6.954;-71.872;2022-07-06T03:08:45;6.30;;;1.10;;
46054;SDS011;31788;6.954;-71.872;2022-07-06T03:11:14;6.53;;;1.00;;
46054;SDS011;31788;6.954;-71.872;2022-07-06T03:13:41;4.28;;;0.90;;
46054;SDS011;31788;6.954;-71.872;2022-07-06T03:16:07;2.38;;;0.88;;
46054;SDS011;31788;6.954;-71.872;2022-07-06T03:18:34;6.15;;;0.90;;
46054;SDS011;31788;6.954;-71.872;2022-07-06T03:21:01;3.87;;;0.70;;
46054;SDS011;31788;6.954;-71.872;2022-07-06T03:23:29;4.72;;;0.85;;
46054;SDS011;31788;6.954;-71.872;2022-07-06T03:25:56;2.67;;;0.77;;
46054;SDS011;31788;6.954;-71.872;2022-07-06T03:28:23;3.33;;;0.80;;
46054;SDS011;31788;6.954;-71.872;2022-07-06T03:30:49;2.63;;;0.88;;
46054;SDS011;31788;6.954;-71.872;2022-07-06T03:33:16;3.67;;;0.88;;
46054;SDS011;31788;6.954;-71.872;2022-07-06T03:35:42;3.78;;;1.02;;
46054;SDS011;31788;6.954;-71.872;2022-07-06T03:38:09;3.88;;;0.70;;
46054;SDS011;31788;6.954;-71.872;2022-07-06T03:40:35;3.80;;;0.80;;
46054;SDS011;31788;6.954;-71.872;2022-07-06T03:43:02;3.20;;;0.80;;
46054;SDS011;31788;6.954;-71.872;2022-07-06T03:45:32;3.78;;;0.70;;
46054;SDS011;31788;6.954;-71.872;2022-07-06T03:47:58;2.63;;;0.68;;
46054;SDS011;31788;6.954;-71.872;2022-07-06T03:50:25;3.50;;;0.68;;
46054;SDS011;31788;6.954;-71.872;2022-07-06T03:52:51;1.25;;;0.60;;
46054;SDS011;31788;6.954;-71.872;2022-07-06T03:55:20;4.40;;;0.80;;
46054;SDS011;31788;6.954;-71.872;2022-07-06T03:57:46;5.43;;;0.73;;
46054;SDS011;31788;6.954;-71.872;2022-07-06T04:00:13;4.15;;;1.05;;
46054;SDS011;31788;6.954;-71.872;2022-07-06T04:02:40;1.75;;;0.65;;
46054;SDS011;31788;6.954;-71.872;2022-07-06T04:05:07;5.78;;;1.50;;
46054;SDS011;31788;6.954;-71.872;2022-07-06T04:07:34;2.35;;;0.80;;
46054;SDS011;31788;6.954;-71.872;2022-07-06T04:10:00;6.53;;;0.80;;
46054;SDS011;31788;6.954;-71.872;2022-07-06T04:12:27;1.88;;;0.70;;
46054;SDS011;31788;6.954;-71.872;2022-07-06T04:14:55;2.47;;;0.65;;
46054;SDS011;31788;6.954;-71.872;2022-07-06T04:17:23;4.63;;;0.80;;
46054;SDS011;31788;6.954;-71.872;2022-07-06T04:20:08;2.75;;;0.82;;
46054;SDS011;31788;6.954;-71.872;2022-07-06T04:22:38;4.65;;;1.20;;
46054;SDS011;31788;6.954;-71.872;2022-07-06T04:25:05;2.67;;;0.68;;
46054;SDS011;31788;6.954;-71.872;2022-07-06T04:27:31;4.10;;;0.88;;
46054;SDS011;31788;6.954;-71.872;2022-07-06T04:29:58;5.75;;;0.85;;
46054;SDS011;31788;6.954;-71.872;2022-07-06T04:32:24;3.40;;;0.75;;
46054;SDS011;31788;6.954;-71.872;2022-07-06T04:34:51;3.10;;;0.70;;
46054;SDS011;31788;6.954;-71.872;2022-07-06T04:37:18;2.28;;;0.60;;
46054;SDS011;31788;6.954;-71.872;2022-07-06T04:39:44;4.15;;;0.90;;
46054;SDS011;31788;6.954;-71.872;2022-07-06T04:42:11;2.85;;;0.82;;
46054;SDS011;31788;6.954;-71.872;2022-07-06T04:44:37;1.95;;;0.70;;
46054;SDS011;31788;6.954;-71.872;2022-07-06T04:47:04;1.90;;;0.70;;
46054;SDS011;31788;6.954;-71.872;2022-07-06T04:49:30;3.25;;;0.68;;
46054;SDS011;31788;6.954;-71.872;2022-07-06T04:51:57;2.40;;;0.50;;
46054;SDS011;31788;6.954;-71.872;2022-07-06T04:54:23;4.72;;;0.90;;
46054;SDS011;31788;6.954;-71.872;2022-07-06T04:56:50;4.53;;;0.65;;
46054;SDS011;31788;6.954;-71.872;2022-07-06T04:59:16;5.45;;;1.00;;
46054;SDS011;31788;6.954;-71.872;2022-07-06T05:01:43;3.03;;;0.60;;
46054;SDS011;31788;6.954;-71.872;2022-07-06T05:04:10;2.90;;;0.50;;
46054;SDS011;31788;6.954;-71.872;2022-07-06T05:06:36;1.85;;;0.60;;
46054;SDS011;31788;6.954;-71.872;2022-07-06T05:09:03;3.88;;;0.90;;
46054;SDS011;31788;6.954;-71.872;2022-07-06T05:11:29;2.53;;;0.60;;
46054;SDS011;31788;6.954;-71.872;2022-07-06T05:13:56;3.65;;;0.65;;
46054;SDS011;31788;6.954;-71.872;2022-07-06T05:16:23;3.63;;;0.70;;
46054;SDS011;31788;6.954;-71.872;2022-07-06T05:18:49;4.38;;;1.50;;
46054;SDS011;31788;6.954;-71.872;2022-07-06T05:21:16;4.80;;;0.70;;
46054;SDS011;31788;6.954;-71.872;2022-07-06T05:23:42;4.38;;;1.00;;
46054;SDS011;31788;6.954;-71.872;2022-07-06T05:26:09;4.05;;;0.90;;
46054;SDS011;31788;6.954;-71.872;2022-07-06T05:28:36;4.10;;;0.80;;
46054;SDS011;31788;6.954;-71.872;2022-07-06T05:31:02;3.40;;;0.50;;
46054;SDS011;31788;6.954;-71.872;2022-07-06T05:33:29;3.00;;;0.53;;
46054;SDS011;31788;6.954;-71.872;2022-07-06T05:35:55;3.60;;;0.80;;
46054;SDS011;31788;6.954;-71.872;2022-07-06T05:38:22;4.35;;;0.60;;
46054;SDS011;31788;6.954;-71.872;2022-07-06T05:40:48;4.45;;;0.68;;
46054;SDS011;31788;6.954;-71.872;2022-07-06T05:43:15;2.53;;;0.60;;
46054;SDS011;31788;6.954;-71.872;2022-07-06T05:45:42;2.20;;;0.57;;
46054;SDS011;31788;6.954;-71.872;2022-07-06T05:48:08;3.63;;;0.60;;
46054;SDS011;31788;6.954;-71.872;2022-07-06T05:50:53;4.53;;;1.10;;
46054;SDS011;31788;6.954;-71.872;2022-07-06T05:53:20;4.07;;;0.90;;
46054;SDS011;31788;6.954;-71.872;2022-07-06T05:55:47;3.97;;;0.70;;
46054;SDS011;31788;6.954;-71.872;2022-07-06T05:58:13;4.53;;;0.95;;
46054;SDS011;31788;6.954;-71.872;2022-07-06T06:00:40;3.35;;;0.70;;
46054;SDS011;31788;6.954;-71.872;2022-07-06T06:03:07;3.47;;;0.73;;
46054;SDS011;31788;6.954;-71.872;2022-07-06T06:05:34;2.80;;;0.70;;
46054;SDS011;31788;6.954;-71.872;2022-07-06T06:08:00;3.38;;;0.70;;
46054;SDS011;31788;6.954;-71.872;2022-07-06T06:10:27;3.30;;;0.82;;
46054;SDS011;31788;6.954;-71.872;2022-07-06T06:12:54;2.10;;;0.60;;
46054;SDS011;31788;6.954;-71.872;2022-07-06T06:15:20;1.98;;;0.70;;
46054;SDS011;31788;6.954;-71.872;2022-07-06T06:17:47;3.08;;;0.70;;
46054;SDS011;31788;6.954;-71.872;2022-07-06T06:20:14;3.77;;;0.60;;
46054;SDS011;31788;6.954;-71.872;2022-07-06T06:22:44;1.63;;;0.60;;
46054;SDS011;31788;6.954;-71.872;2022-07-06T06:25:16;2.78;;;0.70;;
46054;SDS011;31788;6.954;-71.872;2022-07-06T06:27:44;3.75;;;0.70;;
46054;SDS011;31788;6.954;-71.872;2022-07-06T06:30:12;3.13;;;0.70;;
46054;SDS011;31788;6.954;-71.872;2022-07-06T06:32:39;2.65;;;0.70;;
46054;SDS011;31788;6.954;-71.872;2022-07-06T06:35:06;2.80;;;0.75;;
46054;SDS011;31788;6.954;-71.872;2022-07-06T06:37:33;3.70;;;0.70;;
46054;SDS011;31788;6.954;-71.872;2022-07-06T06:40:00;2.60;;;0.60;;
46054;SDS011;31788;6.954;-71.872;2022-07-06T06:42:27;3.83;;;0.65;;
46054;SDS011;31788;6.954;-71.872;2022-07-06T06:44:53;3.50;;;0.80;;
46054;SDS011;31788;6.954;-71.872;2022-07-06T06:47:20;3.15;;;1.10;;
46054;SDS011;31788;6.954;-71.872;2022-07-06T06:49:46;2.70;;;0.65;;
46054;SDS011;31788;6.954;-71.872;2022-07-06T06:52:13;2.90;;;0.80;;
46054;SDS011;31788;6.954;-71.872;2022-07-06T06:54:40;2.80;;;0.70;;
46054;SDS011;31788;6.954;-71.872;2022-07-06T06:57:06;4.70;;;1.00;;
46054;SDS011;31788;6.954;-71.872;2022-07-06T06:59:33;2.53;;;0.70;;
46054;SDS011;31788;6.954;-71.872;2022-07-06T07:01:59;2.40;;;0.68;;
46054;SDS011;31788;6.954;-71.872;2022-07-06T07:04:26;3.53;;;0.90;;
46054;SDS011;31788;6.954;-71.872;2022-07-06T07:06:54;2.13;;;0.68;;
46054;SDS011;31788;6.954;-71.872;2022-07-06T07:09:21;6.13;;;0.75;;
46054;SDS011;31788;6.954;-71.872;2022-07-06T07:11:47;4.03;;;0.68;;
46054;SDS011;31788;6.954;-71.872;2022-07-06T07:14:14;4.25;;;0.95;;
46054;SDS011;31788;6.954;-71.872;2022-07-06T07:16:40;2.90;;;0.60;;
46054;SDS011;31788;6.954;-71.872;2022-07-06T07:19:07;5.07;;;0.70;;
46054;SDS011;31788;6.954;-71.872;2022-07-06T07:21:33;2.70;;;0.80;;
46054;SDS011;31788;6.954;-71.872;2022-07-06T07:24:00;2.33;;;0.70;;
46054;SDS011;31788;6.954;-71.872;2022-07-06T07:26:26;3.10;;;0.60;;
46054;SDS011;31788;6.954;-71.872;2022-07-06T07:28:53;4.53;;;0.70;;
46054;SDS011;31788;6.954;-71.872;2022-07-06T07:31:20;2.90;;;0.70;;
46054;SDS011;31788;6.954;-71.872;2022-07-06T07:33:46;1.40;;;0.60;;
46054;SDS011;31788;6.954;-71.872;2022-07-06T07:36:13;2.70;;;0.60;;
46054;SDS011;31788;6.954;-71.872;2022-07-06T07:38:40;2.13;;;0.57;;
46054;SDS011;31788;6.954;-71.872;2022-07-06T07:41:06;3.22;;;0.63;;
46054;SDS011;31788;6.954;-71.872;2022-07-06T07:43:33;3.30;;;0.60;;
46054;SDS011;31788;6.954;-71.872;2022-07-06T07:45:59;5.53;;;0.77;;
46054;SDS011;31788;6.954;-71.872;2022-07-06T07:48:26;3.25;;;0.60;;
46054;SDS011;31788;6.954;-71.872;2022-07-06T07:50:52;0.73;;;0.52;;
46054;SDS011;31788;6.954;-71.872;2022-07-06T07:53:19;3.42;;;0.50;;
46054;SDS011;31788;6.954;-71.872;2022-07-06T07:55:45;5.45;;;0.93;;
46054;SDS011;31788;6.954;-71.872;2022-07-06T07:58:12;3.55;;;1.15;;
46054;SDS011;31788;6.954;-71.872;2022-07-06T08:00:38;5.78;;;0.80;;
46054;SDS011;31788;6.954;-71.872;2022-07-06T08:03:05;2.90;;;0.60;;
46054;SDS011;31788;6.954;-71.872;2022-07-06T08:05:32;3.05;;;0.60;;
46054;SDS011;31788;6.954;-71.872;2022-07-06T08:07:58;2.10;;;0.60;;
46054;SDS011;31788;6.954;-71.872;2022-07-06T08:10:25;2.72;;;0.57;;
46054;SDS011;31788;6.954;-71.872;2022-07-06T08:12:51;4.57;;;0.75;;
46054;SDS011;31788;6.954;-71.872;2022-07-06T08:15:18;3.55;;;0.60;;
46054;SDS011;31788;6.954;-71.872;2022-07-06T08:17:45;1.52;;;0.60;;
46054;SDS011;31788;6.954;-71.872;2022-07-06T08:20:11;2.30;;;0.60;;
46054;SDS011;31788;6.954;-71.872;2022-07-06T08:22:38;2.25;;;0.52;;
46054;SDS011;31788;6.954;-71.872;2022-07-06T08:25:05;3.43;;;0.80;;
46054;SDS011;31788;6.954;-71.872;2022-07-06T08:27:32;4.70;;;0.70;;
46054;SDS011;31788;6.954;-71.872;2022-07-06T08:29:59;4.78;;;0.63;;
46054;SDS011;31788;6.954;-71.872;2022-07-06T08:32:25;2.88;;;0.80;;
46054;SDS011;31788;6.954;-71.872;2022-07-06T08:34:52;2.55;;;0.73;;
46054;SDS011;31788;6.954;-71.872;2022-07-06T08:37:19;2.00;;;0.60;;
46054;SDS011;31788;6.954;-71.872;2022-07-06T08:39:46;4.60;;;1.00;;
46054;SDS011;31788;6.954;-71.872;2022-07-06T08:42:12;2.28;;;0.70;;
46054;SDS011;31788;6.954;-71.872;2022-07-06T08:44:42;3.38;;;0.70;;
46054;SDS011;31788;6.954;-71.872;2022-07-06T08:47:09;2.60;;;0.75;;
46054;SDS011;31788;6.954;-71.872;2022-07-06T08:49:37;2.53;;;0.60;;
46054;SDS011;31788;6.954;-71.872;2022-07-06T08:52:05;3.10;;;0.90;;
46054;SDS011;31788;6.954;-71.872;2022-07-06T08:54:33;4.07;;;0.60;;
46054;SDS011;31788;6.954;-71.872;2022-07-06T08:57:00;2.78;;;0.60;;
46054;SDS011;31788;6.954;-71.872;2022-07-06T08:59:29;3.38;;;1.00;;
46054;SDS011;31788;6.954;-71.872;2022-07-06T09:01:55;1.50;;;0.60;;
46054;SDS011;31788;6.954;-71.872;2022-07-06T09:04:24;4.40;;;0.70;;
46054;SDS011;31788;6.954;-71.872;2022-07-06T09:06:52;2.60;;;0.90;;
46054;SDS011;31788;6.954;-71.872;2022-07-06T09:09:21;2.85;;;0.68;;
46054;SDS011;31788;6.954;-71.872;2022-07-06T09:11:49;3.92;;;0.60;;
46054;SDS011;31788;6.954;-71.872;2022-07-06T09:14:17;2.43;;;0.60;;
46054;SDS011;31788;6.954;-71.872;2022-07-06T09:16:44;3.00;;;0.50;;
46054;SDS011;31788;6.954;-71.872;2022-07-06T09:19:12;3.40;;;0.73;;
46054;SDS011;31788;6.954;-71.872;2022-07-06T09:21:40;2.90;;;0.93;;
46054;SDS011;31788;6.954;-71.872;2022-07-06T09:24:11;2.03;;;0.50;;
46054;SDS011;31788;6.954;-71.872;2022-07-06T09:26:39;1.70;;;0.50;;
46054;SDS011;31788;6.954;-71.872;2022-07-06T09:29:09;2.80;;;0.60;;
46054;SDS011;31788;6.954;-71.872;2022-07-06T09:31:36;5.38;;;0.77;;
46054;SDS011;31788;6.954;-71.872;2022-07-06T09:34:04;2.63;;;0.60;;
46054;SDS011;31788;6.954;-71.872;2022-07-06T09:36:41;2.83;;;0.52;;
46054;SDS011;31788;6.954;-71.872;2022-07-06T09:41:47;1.50;;;0.60;;
46054;SDS011;31788;6.954;-71.872;2022-07-06T09:44:25;4.35;;;0.70;;
46054;SDS011;31788;6.954;-71.872;2022-07-06T09:46:57;3.42;;;0.60;;
46054;SDS011;31788;6.954;-71.872;2022-07-06T09:49:28;2.25;;;0.65;;
46054;SDS011;31788;6.954;-71.872;2022-07-06T09:51:57;1.33;;;0.50;;
46054;SDS011;31788;6.954;-71.872;2022-07-06T09:54:25;3.72;;;0.60;;
46054;SDS011;31788;6.954;-71.872;2022-07-06T09:56:53;4.00;;;0.70;;
46054;SDS011;31788;6.954;-71.872;2022-07-06T09:59:21;2.00;;;0.47;;
46054;SDS011;31788;6.954;-71.872;2022-07-06T10:01:56;1.52;;;0.60;;
46054;SDS011;31788;6.954;-71.872;2022-07-06T10:04:24;5.13;;;0.80;;
46054;SDS011;31788;6.954;-71.872;2022-07-06T10:06:52;2.60;;;0.80;;
46054;SDS011;31788;6.954;-71.872;2022-07-06T10:09:20;2.60;;;0.70;;
46054;SDS011;31788;6.954;-71.872;2022-07-06T10:11:53;2.90;;;1.00;;
46054;SDS011;31788;6.954;-71.872;2022-07-06T10:14:25;3.28;;;1.25;;
46054;SDS011;31788;6.954;-71.872;2022-07-06T10:16:55;3.65;;;1.02;;
46054;SDS011;31788;6.954;-71.872;2022-07-06T10:19:25;3.30;;;1.15;;
46054;SDS011;31788;6.954;-71.872;2022-07-06T10:21:53;4.38;;;1.00;;
46054;SDS011;31788;6.954;-71.872;2022-07-06T10:24:24;4.68;;;1.30;;
46054;SDS011;31788;6.954;-71.872;2022-07-06T10:26:53;4.15;;;1.38;;
46054;SDS011;31788;6.954;-71.872;2022-07-06T10:29:20;7.47;;;1.40;;
46054;SDS011;31788;6.954;-71.872;2022-07-06T10:31:48;4.68;;;1.80;;
46054;SDS011;31788;6.954;-71.872;2022-07-06T10:34:17;3.42;;;1.20;;
46054;SDS011;31788;6.954;-71.872;2022-07-06T10:36:48;9.50;;;1.65;;
46054;SDS011;31788;6.954;-71.872;2022-07-06T10:39:36;5.90;;;1.50;;
46054;SDS011;31788;6.954;-71.872;2022-07-06T10:50:55;6.45;;;2.95;;
46054;SDS011;31788;6.954;-71.872;2022-07-06T10:53:49;5.95;;;2.35;;
46054;SDS011;31788;6.954;-71.872;2022-07-06T10:56:20;9.32;;;5.20;;
46054;SDS011;31788;6.954;-71.872;2022-07-06T10:59:01;12.05;;;5.78;;
46054;SDS011;31788;6.954;-71.872;2022-07-06T11:01:34;8.00;;;4.60;;
46054;SDS011;31788;6.954;-71.872;2022-07-06T11:06:30;7.18;;;2.40;;
46054;SDS011;31788;6.954;-71.872;2022-07-06T11:09:02;6.07;;;1.90;;
46054;SDS011;31788;6.954;-71.872;2022-07-06T11:16:40;3.70;;;1.73;;
46054;SDS011;31788;6.954;-71.872;2022-07-06T11:19:14;3.88;;;1.40;;
46054;SDS011;31788;6.954;-71.872;2022-07-06T11:21:46;3.35;;;1.45;;
46054;SDS011;31788;6.954;-71.872;2022-07-06T11:24:35;4.63;;;1.30;;
46054;SDS011;31788;6.954;-71.872;2022-07-06T11:27:04;5.72;;;1.80;;
46054;SDS011;31788;6.954;-71.872;2022-07-06T11:29:34;5.00;;;1.50;;
46054;SDS011;31788;6.954;-71.872;2022-07-06T11:32:07;4.85;;;1.40;;
46054;SDS011;31788;6.954;-71.872;2022-07-06T11:34:43;3.38;;;1.27;;
46054;SDS011;31788;6.954;-71.872;2022-07-06T11:37:11;3.55;;;1.00;;
46054;SDS011;31788;6.954;-71.872;2022-07-06T11:39:40;3.75;;;1.05;;
46054;SDS011;31788;6.954;-71.872;2022-07-06T11:42:08;3.08;;;0.98;;
46054;SDS011;31788;6.954;-71.872;2022-07-06T11:44:36;4.00;;;1.10;;
46054;SDS011;31788;6.954;-71.872;2022-07-06T11:47:03;8.45;;;1.80;;
46054;SDS011;31788;6.954;-71.872;2022-07-06T11:49:32;5.90;;;1.00;;
46054;SDS011;31788;6.954;-71.872;2022-07-06T11:52:00;5.25;;;1.02;;
46054;SDS011;31788;6.954;-71.872;2022-07-06T11:54:37;4.38;;;0.88;;
46054;SDS011;31788;6.954;-71.872;2022-07-06T11:57:06;13.98;;;1.77;;
46054;SDS011;31788;6.954;-71.872;2022-07-06T11:59:37;4.47;;;1.10;;
46054;SDS011;31788;6.954;-71.872;2022-07-06T12:02:06;4.32;;;0.93;;
46054;SDS011;31788;6.954;-71.872;2022-07-06T12:04:43;9.98;;;1.50;;
46054;SDS011;31788;6.954;-71.872;2022-07-06T12:07:11;10.57;;;1.30;;
46054;SDS011;31788;6.954;-71.872;2022-07-06T12:09:41;18.27;;;1.77;;
46054;SDS011;31788;6.954;-71.872;2022-07-06T12:12:09;9.18;;;1.80;;
46054;SDS011;31788;6.954;-71.872;2022-07-06T12:14:37;21.40;;;2.47;;
46054;SDS011;31788;6.954;-71.872;2022-07-06T12:19:32;10.55;;;1.20;;
46054;SDS011;31788;6.954;-71.872;2022-07-06T12:21:59;13.18;;;1.50;;
46054;SDS011;31788;6.954;-71.872;2022-07-06T12:24:29;7.30;;;1.10;;
46054;SDS011;31788;6.954;-71.872;2022-07-06T12:26:58;7.63;;;1.15;;
46054;SDS011;31788;6.954;-71.872;2022-07-06T12:29:46;4.55;;;1.25;;
46054;SDS011;31788;6.954;-71.872;2022-07-06T12:32:21;4.63;;;0.82;;
46054;SDS011;31788;6.954;-71.872;2022-07-06T12:34:56;2.97;;;0.90;;
46054;SDS011;31788;6.954;-71.872;2022-07-06T12:37:31;4.00;;;0.77;;
46054;SDS011;31788;6.954;-71.872;2022-07-06T12:39:58;4.47;;;0.70;;
46054;SDS011;31788;6.954;-71.872;2022-07-06T12:42:26;3.22;;;0.88;;
46054;SDS011;31788;6.954;-71.872;2022-07-06T12:44:53;2.35;;;1.10;;
46054;SDS011;31788;6.954;-71.872;2022-07-06T12:47:21;5.20;;;1.30;;
46054;SDS011;31788;6.954;-71.872;2022-07-06T12:50:06;2.22;;;0.73;;
46054;SDS011;31788;6.954;-71.872;2022-07-06T12:52:35;3.00;;;1.00;;
46054;SDS011;31788;6.954;-71.872;2022-07-06T12:55:03;4.78;;;1.60;;
46054;SDS011;31788;6.954;-71.872;2022-07-06T12:57:47;5.90;;;1.02;;
46054;SDS011;31788;6.954;-71.872;2022-07-06T13:00:14;4.13;;;0.98;;
46054;SDS011;31788;6.954;-71.872;2022-07-06T13:02:43;2.88;;;1.02;;
46054;SDS011;31788;6.954;-71.872;2022-07-06T13:05:12;5.15;;;1.27;;
46054;SDS011;31788;6.954;-71.872;2022-07-06T13:07:44;2.60;;;1.10;;
46054;SDS011;31788;6.954;-71.872;2022-07-06T13:10:13;4.10;;;0.88;;
46054;SDS011;31788;6.954;-71.872;2022-07-06T13:12:40;3.75;;;1.15;;
46054;SDS011;31788;6.954;-71.872;2022-07-06T13:15:07;4.13;;;1.30;;
46054;SDS011;31788;6.954;-71.872;2022-07-06T13:17:35;3.38;;;1.08;;
46054;SDS011;31788;6.954;-71.872;2022-07-06T13:20:05;4.47;;;1.03;;
46054;SDS011;31788;6.954;-71.872;2022-07-06T13:22:33;4.43;;;1.20;;
46054;SDS011;31788;6.954;-71.872;2022-07-06T13:25:00;4.47;;;1.10;;
46054;SDS011;31788;6.954;-71.872;2022-07-06T13:27:26;2.50;;;1.38;;
46054;SDS011;31788;6.954;-71.872;2022-07-06T13:29:53;3.53;;;1.50;;
46054;SDS011;31788;6.954;-71.872;2022-07-06T13:32:20;3.85;;;1.52;;
46054;SDS011;31788;6.954;-71.872;2022-07-06T13:34:47;3.75;;;1.40;;
46054;SDS011;31788;6.954;-71.872;2022-07-06T13:37:14;4.90;;;1.50;;
46054;SDS011;31788;6.954;-71.872;2022-07-06T13:39:40;3.80;;;1.50;;
46054;SDS011;31788;6.954;-71.872;2022-07-06T13:42:07;4.80;;;1.47;;
46054;SDS011;31788;6.954;-71.872;2022-07-06T13:44:34;3.53;;;1.30;;
46054;SDS011;31788;6.954;-71.872;2022-07-06T13:47:00;5.00;;;1.20;;
46054;SDS011;31788;6.954;-71.872;2022-07-06T13:49:27;3.17;;;1.40;;
46054;SDS011;31788;6.954;-71.872;2022-07-06T13:51:54;3.47;;;1.30;;
46054;SDS011;31788;6.954;-71.872;2022-07-06T13:54:27;2.72;;;1.10;;
46054;SDS011;31788;6.954;-71.872;2022-07-06T13:56:57;2.00;;;1.07;;
46054;SDS011;31788;6.954;-71.872;2022-07-06T13:59:23;2.13;;;1.10;;
46054;SDS011;31788;6.954;-71.872;2022-07-06T14:01:50;2.13;;;1.02;;
46054;SDS011;31788;6.954;-71.872;2022-07-06T14:04:17;2.80;;;0.90;;
46054;SDS011;31788;6.954;-71.872;2022-07-06T14:06:43;3.40;;;1.10;;
46054;SDS011;31788;6.954;-71.872;2022-07-06T14:09:10;11.35;;;1.45;;
46054;SDS011;31788;6.954;-71.872;2022-07-06T14:11:37;2.33;;;0.90;;
46054;SDS011;31788;6.954;-71.872;2022-07-06T14:14:03;2.88;;;1.05;;
46054;SDS011;31788;6.954;-71.872;2022-07-06T14:16:33;3.33;;;1.20;;
46054;SDS011;31788;6.954;-71.872;2022-07-06T14:19:02;3.22;;;1.20;;
46054;SDS011;31788;6.954;-71.872;2022-07-06T14:21:29;4.03;;;1.20;;
46054;SDS011;31788;6.954;-71.872;2022-07-06T14:23:56;3.30;;;1.20;;
46054;SDS011;31788;6.954;-71.872;2022-07-06T14:26:22;2.03;;;1.00;;
46054;SDS011;31788;6.954;-71.872;2022-07-06T14:28:49;4.60;;;1.13;;
46054;SDS011;31788;6.954;-71.872;2022-07-06T14:31:15;3.05;;;1.15;;
46054;SDS011;31788;6.954;-71.872;2022-07-06T14:33:42;2.13;;;0.90;;
46054;SDS011;31788;6.954;-71.872;2022-07-06T14:36:09;2.10;;;0.90;;
46054;SDS011;31788;6.954;-71.872;2022-07-06T14:38:35;2.42;;;0.88;;
46054;SDS011;31788;6.954;-71.872;2022-07-06T14:41:02;2.58;;;1.10;;
46054;SDS011;31788;6.954;-71.872;2022-07-06T14:43:29;4.53;;;1.17;;
46054;SDS011;31788;6.954;-71.872;2022-07-06T14:45:55;2.00;;;1.20;;
46054;SDS011;31788;6.954;-71.872;2022-07-06T14:48:22;1.42;;;1.00;;
46054;SDS011;31788;6.954;-71.872;2022-07-06T14:50:49;1.25;;;0.70;;
46054;SDS011;31788;6.954;-71.872;2022-07-06T14:53:15;2.78;;;0.60;;
46054;SDS011;31788;6.954;-71.872;2022-07-06T14:55:42;3.38;;;0.90;;
46054;SDS011;31788;6.954;-71.872;2022-07-06T14:58:08;4.38;;;0.70;;
46054;SDS011;31788;6.954;-71.872;2022-07-06T15:00:35;2.53;;;0.83;;